Time;durP1;ratioP1;P1;durP2;ratioP2;P2;SDS_P1;SDS_P2;PMS_P1;PMS_P2;Temp;Humidity;BMP_temperature;BMP_pressure;BME280_temperature;BME280_humidity;BME280_pressure;Samples;Min_cycle;Max_cycle;Signal;HPM_P1;HPM_P2
2021/06/08 00:00:17;;;;;;;5.90;4.50;;;;;;;16.07;93.77;99344.56;1612348;89;21399;-78
2021/06/08 00:02:43;;;;;;;7.75;4.28;;;;;;;16.08;93.95;99347.53;1599412;89;21045;-78
2021/06/08 00:05:10;;;;;;;7.65;5.37;;;;;;;16.09;93.99;99336.14;1599544;89;21124;-78
2021/06/08 00:07:36;;;;;;;6.72;4.12;;;;;;;16.08;93.95;99335.88;1612401;88;21059;-79
2021/06/08 00:10:05;;;;;;;4.90;4.03;;;;;;;16.07;94.01;99336.42;1612481;88;21517;-72
2021/06/08 00:12:31;;;;;;;5.28;4.78;;;;;;;16.06;94.11;99332.13;1612725;88;21033;-73
2021/06/08 00:14:57;;;;;;;5.53;5.08;;;;;;;16.07;94.17;99334.26;1607332;88;21037;-74
2021/06/08 00:17:24;;;;;;;5.17;4.78;;;;;;;16.07;94.14;99339.69;1628736;87;20958;-76
2021/06/08 00:19:50;;;;;;;6.30;5.22;;;;;;;16.06;94.15;99340.27;1644269;86;21302;-75
2021/06/08 00:22:16;;;;;;;4.83;4.33;;;;;;;16.08;94.17;99344.02;1653212;86;20965;-74
2021/06/08 00:24:43;;;;;;;5.40;5.00;;;;;;;16.08;94.25;99346.73;1627998;86;21021;-74
2021/06/08 00:27:10;;;;;;;5.85;4.50;;;;;;;16.08;94.34;99341.30;1625689;87;20988;-78
2021/06/08 00:29:36;;;;;;;5.22;4.62;;;;;;;16.11;94.42;99342.09;1638365;86;20978;-79
2021/06/08 00:32:03;;;;;;;6.25;4.50;;;;;;;16.12;94.32;99347.20;1652318;85;21022;-77
2021/06/08 00:34:30;;;;;;;4.37;3.98;;;;;;;16.12;94.37;99346.39;1644455;86;21074;-74
2021/06/08 00:36:56;;;;;;;5.75;5.17;;;;;;;16.10;94.54;99346.70;1625767;87;21526;-76
2021/06/08 00:39:22;;;;;;;7.85;5.00;;;;;;;16.09;94.62;99338.30;1625514;87;20990;-73
2021/06/08 00:41:49;;;;;;;6.17;5.35;;;;;;;16.09;94.77;99336.14;1644501;86;21589;-70
2021/06/08 00:44:17;;;;;;;5.58;5.00;;;;;;;16.08;94.92;99344.02;1625006;86;21580;-73
2021/06/08 00:46:46;;;;;;;5.70;4.83;;;;;;;16.07;95.13;99342.40;1625807;88;21106;-72
2021/06/08 00:49:13;;;;;;;6.17;5.42;;;;;;;16.05;95.37;99340.00;1614210;88;21182;-74
2021/06/08 00:51:39;;;;;;;5.62;5.05;;;;;;;16.05;95.59;99329.15;1615944;87;21022;-75
2021/06/08 00:54:07;;;;;;;6.78;5.60;;;;;;;16.07;95.80;99329.64;1627196;86;21049;-74
2021/06/08 00:56:35;;;;;;;5.70;5.12;;;;;;;16.08;95.78;99329.09;1627361;86;21033;-73
2021/06/08 00:59:01;;;;;;;6.40;4.92;;;;;;;16.06;96.01;99332.13;1625553;87;21058;-73
2021/06/08 01:01:27;;;;;;;4.90;4.55;;;;;;;16.08;96.14;99334.52;1614352;88;21032;-73
2021/06/08 01:03:54;;;;;;;8.53;5.50;;;;;;;16.09;96.26;99333.42;1650273;86;20946;-77
2021/06/08 01:06:20;;;;;;;5.80;5.28;;;;;;;16.09;96.34;99334.78;1621873;86;20939;-77
2021/06/08 01:08:47;;;;;;;9.10;5.78;;;;;;;16.11;96.36;99328.52;1625404;87;21503;-73
2021/06/08 01:11:14;;;;;;;5.92;5.42;;;;;;;16.13;96.38;99323.59;1643162;86;21049;-74
2021/06/08 01:13:43;;;;;;;6.80;5.37;;;;;;;16.16;96.35;99328.45;1648484;85;21565;-73
2021/06/08 01:16:10;;;;;;;5.35;4.85;;;;;;;16.17;96.15;99331.39;1647591;86;20956;-74
2021/06/08 01:18:36;;;;;;;6.05;5.45;;;;;;;16.17;96.01;99336.02;1646182;86;21027;-74
2021/06/08 01:21:05;;;;;;;7.03;5.72;;;;;;;16.17;95.98;99333.30;1638796;86;20963;-74
2021/06/08 01:23:33;;;;;;;6.95;5.78;;;;;;;16.14;95.97;99337.42;1621812;87;21123;-74
2021/06/08 01:25:59;;;;;;;6.20;5.60;;;;;;;16.10;95.92;99339.12;1654590;86;21077;-74
2021/06/08 01:28:25;;;;;;;5.87;5.37;;;;;;;16.06;96.10;99351.11;1653874;86;21052;-76
2021/06/08 01:30:53;;;;;;;7.87;5.58;;;;;;;16.01;96.31;99344.95;1653875;86;21032;-74
2021/06/08 01:33:21;;;;;;;6.55;5.55;;;;;;;15.95;96.46;99348.83;1654095;86;21111;-74
2021/06/08 01:35:48;;;;;;;7.85;7.15;;;;;;;15.91;96.77;99343.73;1653727;86;21013;-75
2021/06/08 01:38:15;;;;;;;5.80;5.17;;;;;;;15.86;97.30;99343.81;1630857;86;21031;-74
2021/06/08 01:40:41;;;;;;;8.55;5.53;;;;;;;15.83;97.67;99353.31;1639828;86;21079;-75
2021/06/08 01:43:08;;;;;;;7.67;6.33;;;;;;;15.80;97.98;99348.49;1632578;87;21028;-74
2021/06/08 01:45:35;;;;;;;8.28;5.75;;;;;;;15.79;98.55;99354.20;1612101;86;21158;-71
2021/06/08 01:48:04;;;;;;;7.08;6.47;;;;;;;15.78;98.86;99362.09;1651971;86;21569;-75
2021/06/08 01:50:30;;;;;;;7.95;6.45;;;;;;;15.76;98.87;99356.15;1651756;86;21774;-73
2021/06/08 01:53:11;;;;;;;6.80;6.17;;;;;;;15.74;99.06;99357.78;1628770;86;21554;-73
2021/06/08 01:55:41;;;;;;;6.25;5.60;;;;;;;15.72;99.42;99361.36;1651744;86;21067;-73
2021/06/08 01:58:15;;;;;;;6.65;5.53;;;;;;;15.70;99.58;99355.41;1651636;86;20965;-73
2021/06/08 02:01:05;;;;;;;6.90;6.40;;;;;;;15.69;100.00;99362.73;1651835;86;21497;-74
2021/06/08 02:03:39;;;;;;;8.03;7.30;;;;;;;15.69;100.00;99355.95;1640071;86;21090;-72
2021/06/08 02:06:16;;;;;;;6.30;5.80;;;;;;;15.67;99.96;99358.70;1651822;86;21071;-74
2021/06/08 02:08:52;;;;;;;7.90;6.53;;;;;;;15.65;100.00;99358.18;1662640;86;21027;-74
2021/06/08 02:11:43;;;;;;;6.53;5.95;;;;;;;15.61;100.00;99366.09;1665808;86;21096;-73
2021/06/08 02:14:44;;;;;;;6.97;6.37;;;;;;;15.61;100.00;99365.29;1665080;86;21055;-73
2021/06/08 02:17:25;;;;;;;7.58;6.85;;;;;;;15.59;100.00;99364.21;1628931;87;21290;-75
2021/06/08 02:19:53;;;;;;;6.65;6.00;;;;;;;15.55;100.00;99361.02;1627387;87;21670;-74
2021/06/08 02:22:22;;;;;;;6.97;6.33;;;;;;;15.51;100.00;99356.73;1648017;86;21079;-76
2021/06/08 02:24:48;;;;;;;6.83;6.22;;;;;;;15.49;100.00;99356.75;1634617;86;20976;-73
2021/06/08 02:27:15;;;;;;;6.50;5.85;;;;;;;15.47;100.00;99364.34;1603588;88;21076;-74
2021/06/08 02:29:45;;;;;;;7.10;6.28;;;;;;;15.46;100.00;99366.25;1626298;86;21312;-75
2021/06/08 02:32:11;;;;;;;7.60;6.92;;;;;;;15.48;100.00;99374.91;1614189;86;20990;-77
2021/06/08 02:34:38;;;;;;;8.43;6.70;;;;;;;15.46;100.00;99372.22;1614438;88;21530;-73
2021/06/08 02:37:04;;;;;;;7.33;6.67;;;;;;;15.45;100.00;99374.12;1625534;86;21575;-72
2021/06/08 02:39:31;;;;;;;7.28;6.67;;;;;;;15.45;100.00;99374.12;1614046;86;41098;-72
2021/06/08 02:41:57;;;;;;;10.63;7.42;;;;;;;15.45;100.00;99378.18;1647483;86;21669;-73
2021/06/08 02:44:24;;;;;;;6.70;5.83;;;;;;;15.47;100.00;99381.97;1646671;87;21570;-74
2021/06/08 02:46:51;;;;;;;7.45;6.83;;;;;;;15.47;100.00;99378.71;1647331;86;21057;-74
2021/06/08 02:49:19;;;;;;;7.65;6.97;;;;;;;15.48;100.00;99384.40;1649323;85;21045;-75
2021/06/08 02:51:47;;;;;;;7.35;6.65;;;;;;;15.48;100.00;99379.52;1649812;85;21096;-74
2021/06/08 02:54:15;;;;;;;8.83;8.03;;;;;;;15.49;100.00;99381.14;1675774;85;22092;-72
2021/06/08 02:56:41;;;;;;;10.93;7.70;;;;;;;15.48;100.00;99383.05;1658989;85;20997;-74
2021/06/08 02:59:09;;;;;;;7.35;6.75;;;;;;;15.52;100.00;99386.00;1675493;85;20988;-74
2021/06/08 03:01:37;;;;;;;9.00;8.20;;;;;;;15.52;100.00;99379.23;1653727;85;21013;-74
2021/06/08 03:04:04;;;;;;;7.28;6.65;;;;;;;15.57;100.00;99380.52;1634134;85;21005;-74
2021/06/08 03:06:37;;;;;;;14.03;7.90;;;;;;;15.62;100.00;99376.39;1675763;85;21565;-73
2021/06/08 03:09:07;;;;;;;8.43;7.62;;;;;;;15.64;100.00;99388.55;1675477;85;21064;-74
2021/06/08 03:11:40;;;;;;;7.90;7.05;;;;;;;15.67;100.00;99389.34;1635311;85;21517;-74
2021/06/08 03:14:08;;;;;;;8.80;8.00;;;;;;;15.74;100.00;99393.58;1629325;86;21731;-74
2021/06/08 03:16:37;;;;;;;11.75;8.68;;;;;;;15.76;100.00;99394.11;1664421;85;21032;-74
2021/06/08 03:19:06;;;;;;;11.73;8.95;;;;;;;15.78;100.00;99387.28;1675630;85;21093;-73
2021/06/08 03:21:37;;;;;;;7.72;6.90;;;;;;;15.82;100.00;99382.11;1674848;85;20976;-71
2021/06/08 03:24:07;;;;;;;12.80;7.42;;;;;;;15.85;100.00;99381.52;1675372;85;21616;-72
2021/06/08 03:26:37;;;;;;;12.00;7.25;;;;;;;15.91;100.00;99392.02;1675717;85;21065;-74
2021/06/08 03:29:07;;;;;;;14.18;8.23;;;;;;;15.97;100.00;99390.83;1647256;86;21013;-73
2021/06/08 03:31:35;;;;;;;7.95;7.25;;;;;;;16.02;100.00;99391.30;1658395;85;22213;-74
2021/06/08 03:34:01;;;;;;;9.08;8.38;;;;;;;16.07;100.00;99390.69;1650876;85;21072;-78
2021/06/08 03:36:28;;;;;;;10.13;8.03;;;;;;;16.08;100.00;99388.78;1630473;87;21537;-73
2021/06/08 03:38:54;;;;;;;9.85;8.25;;;;;;;16.11;100.00;99394.42;1647990;86;21064;-73
2021/06/08 03:41:21;;;;;;;8.75;7.55;;;;;;;16.16;100.00;99389.50;1649692;86;21013;-73
2021/06/08 03:43:48;;;;;;;9.58;8.68;;;;;;;16.23;100.00;99393.18;1648087;86;21080;-73
2021/06/08 03:46:15;;;;;;;8.18;7.53;;;;;;;16.27;100.00;99397.73;1649722;87;21537;-73
2021/06/08 03:48:41;;;;;;;9.98;8.98;;;;;;;16.33;100.00;99403.34;1671839;85;20945;-75
2021/06/08 03:51:08;;;;;;;7.90;7.30;;;;;;;16.38;100.00;99403.81;1651829;85;21041;-77
2021/06/08 03:53:34;;;;;;;9.90;6.65;;;;;;;16.43;100.00;99404.55;1653258;85;21028;-76
2021/06/08 03:56:00;;;;;;;8.00;7.20;;;;;;;16.49;100.00;99406.09;1588257;87;21056;-74
2021/06/08 03:58:27;;;;;;;8.08;7.37;;;;;;;16.55;100.00;99407.59;1649481;86;20980;-75
2021/06/08 04:00:56;;;;;;;9.43;8.48;;;;;;;16.61;100.00;99395.33;1630662;87;21091;-77
2021/06/08 04:03:22;;;;;;;7.87;7.17;;;;;;;16.66;99.82;99400.68;1630266;87;21561;-75
2021/06/08 04:05:48;;;;;;;8.18;5.92;;;;;;;16.76;99.34;99405.95;1649682;86;21053;-75
2021/06/08 04:08:15;;;;;;;7.83;5.62;;;;;;;16.80;97.77;99396.91;1655689;85;21926;-74
2021/06/08 04:10:41;;;;;;;7.45;6.78;;;;;;;16.88;97.21;99402.23;1666764;85;20909;-77
2021/06/08 04:13:08;;;;;;;6.85;6.15;;;;;;;16.92;95.61;99401.33;1675684;85;20972;-76
2021/06/08 04:15:35;;;;;;;7.10;6.47;;;;;;;16.96;94.76;99406.42;1673560;85;21040;-72
2021/06/08 04:18:02;;;;;;;8.73;6.62;;;;;;;17.05;94.21;99405.72;1686710;85;21055;-72
2021/06/08 04:20:29;;;;;;;7.80;7.10;;;;;;;17.13;93.62;99405.83;1686608;85;21169;-74
2021/06/08 04:22:59;;;;;;;8.65;7.78;;;;;;;17.21;93.12;99408.42;1663065;85;21504;-73
2021/06/08 04:25:27;;;;;;;8.55;7.75;;;;;;;17.28;92.47;99406.09;1686548;85;21532;-73
2021/06/08 04:27:54;;;;;;;7.22;6.62;;;;;;;17.34;91.84;99413.06;1693399;84;20980;-73
2021/06/08 04:30:21;;;;;;;7.55;6.87;;;;;;;17.36;91.06;99408.14;1693478;84;20976;-80
2021/06/08 04:32:47;;;;;;;8.38;7.58;;;;;;;17.40;91.02;99409.95;1693785;84;22150;-73
2021/06/08 04:35:15;;;;;;;9.38;8.55;;;;;;;17.36;90.15;99414.36;1671465;84;21023;-73
2021/06/08 04:37:41;;;;;;;8.63;7.83;;;;;;;17.40;90.14;99412.67;1693753;84;20948;-72
2021/06/08 04:40:10;;;;;;;8.45;7.67;;;;;;;17.47;90.00;99412.80;1693534;84;20992;-72
2021/06/08 04:42:42;;;;;;;8.53;7.75;;;;;;;17.52;89.47;99413.52;1671660;84;21043;-72
2021/06/08 04:45:10;;;;;;;7.97;7.17;;;;;;;17.59;89.16;99410.44;1693700;84;21141;-72
2021/06/08 04:47:36;;;;;;;7.47;6.80;;;;;;;17.64;88.27;99409.78;1693674;84;20975;-72
2021/06/08 04:50:04;;;;;;;9.80;6.62;;;;;;;17.70;87.84;99411.27;1693599;84;21027;-74
2021/06/08 04:52:30;;;;;;;6.37;5.55;;;;;;;17.76;86.60;99420.14;1693535;84;20967;-73
2021/06/08 04:54:56;;;;;;;6.83;6.28;;;;;;;17.79;85.43;99420.91;1694726;84;21064;-73
2021/06/08 04:57:23;;;;;;;6.22;5.62;;;;;;;17.80;84.72;99419.23;1693789;84;21487;-72
2021/06/08 05:00:11;;;;;;;7.87;6.05;;;;;;;17.83;84.44;99409.67;1693462;84;21592;-73
2021/06/08 05:02:55;;;;;;;7.22;5.58;;;;;;;17.89;84.37;99419.31;1671513;84;21055;-74
2021/06/08 05:05:29;;;;;;;6.70;5.42;;;;;;;17.99;84.33;99416.92;1677872;84;21015;-72
2021/06/08 05:08:07;;;;;;;6.65;5.95;;;;;;;18.08;83.52;99417.84;1693833;84;21032;-75
2021/06/08 05:10:41;;;;;;;6.30;5.70;;;;;;;18.12;82.85;99420.20;1671326;84;21013;-75
2021/06/08 05:13:11;;;;;;;4.95;4.55;;;;;;;18.16;82.37;99415.75;1693690;84;21557;-72
2021/06/08 05:15:37;;;;;;;6.53;5.62;;;;;;;18.22;82.29;99416.67;1672585;84;21000;-72
2021/06/08 05:18:06;;;;;;;6.50;5.97;;;;;;;18.30;81.89;99412.44;1673497;84;21015;-79
2021/06/08 05:20:35;;;;;;;5.62;5.12;;;;;;;18.40;81.89;99414.12;1696497;84;20968;-79
2021/06/08 05:23:03;;;;;;;6.42;5.75;;;;;;;18.47;81.40;99421.28;1696125;84;20952;-78
2021/06/08 05:25:30;;;;;;;5.80;5.30;;;;;;;18.52;80.97;99423.89;1696754;84;21065;-77
2021/06/08 05:27:56;;;;;;;5.92;5.33;;;;;;;18.55;80.16;99425.49;1673275;84;21481;-72
2021/06/08 05:30:23;;;;;;;7.08;4.17;;;;;;;18.58;80.36;99421.33;1693476;84;21557;-84
2021/06/08 05:32:49;;;;;;;4.22;3.87;;;;;;;18.61;77.82;99414.70;1692417;84;21087;-72
2021/06/08 05:35:20;;;;;;;4.90;4.28;;;;;;;18.66;77.74;99421.39;1643701;86;21048;-74
2021/06/08 05:37:46;;;;;;;4.17;3.87;;;;;;;18.72;78.12;99422.89;1622481;86;21040;-72
2021/06/08 05:40:13;;;;;;;5.45;4.67;;;;;;;18.79;77.80;99424.38;1644831;84;21544;-73
2021/06/08 05:42:39;;;;;;;5.12;4.70;;;;;;;18.83;77.24;99415.27;1688978;84;21047;-73
2021/06/08 05:45:07;;;;;;;5.70;4.70;;;;;;;18.87;76.68;99421.70;1668829;85;21496;-73
2021/06/08 05:47:33;;;;;;;5.47;4.97;;;;;;;18.90;76.71;99417.54;1688947;85;21147;-71
2021/06/08 05:50:00;;;;;;;4.70;4.30;;;;;;;18.97;77.05;99423.37;1666480;84;21036;-72
2021/06/08 05:52:27;;;;;;;5.90;5.00;;;;;;;19.05;76.44;99421.25;1644058;86;20995;-73
2021/06/08 05:54:53;;;;;;;5.30;4.10;;;;;;;19.13;75.49;99423.23;1687094;85;21510;-72
2021/06/08 05:57:21;;;;;;;5.85;5.30;;;;;;;19.18;75.57;99426.61;1687099;85;21542;-75
2021/06/08 05:59:48;;;;;;;5.55;3.77;;;;;;;19.21;75.32;99419.73;1664938;85;21234;-74
2021/06/08 06:02:14;;;;;;;4.72;4.33;;;;;;;19.24;74.44;99422.38;1686826;85;20902;-74
2021/06/08 06:04:43;;;;;;;7.50;4.28;;;;;;;19.27;74.25;99425.87;1688664;84;21051;-74
2021/06/08 06:07:10;;;;;;;4.62;4.28;;;;;;;19.32;73.70;99428.46;1662093;85;21016;-71
2021/06/08 06:09:37;;;;;;;6.33;5.70;;;;;;;19.34;73.44;99418.83;1692994;84;21168;-79
2021/06/08 06:12:05;;;;;;;5.47;4.72;;;;;;;19.40;74.32;99423.04;1655827;85;21041;-74
2021/06/08 06:14:33;;;;;;;4.25;3.98;;;;;;;19.48;74.00;99431.03;1656651;85;20929;-74
2021/06/08 06:16:59;;;;;;;7.00;4.80;;;;;;;19.55;72.58;99425.94;1671608;84;20959;-74
2021/06/08 06:19:25;;;;;;;5.03;4.50;;;;;;;19.60;72.41;99427.16;1677470;85;21060;-73
2021/06/08 06:21:53;;;;;;;4.83;4.33;;;;;;;19.64;72.27;99428.13;1656017;85;21055;-73
2021/06/08 06:24:20;;;;;;;4.87;4.40;;;;;;;19.67;72.23;99419.30;1677579;85;21226;-77
2021/06/08 06:26:46;;;;;;;6.37;4.20;;;;;;;19.72;71.36;99414.27;1655752;85;20964;-74
2021/06/08 06:29:13;;;;;;;7.17;4.37;;;;;;;19.74;71.33;99418.30;1655868;85;21027;-75
2021/06/08 06:31:47;;;;;;;4.35;3.95;;;;;;;19.79;70.39;99409.97;1677159;85;21028;-74
2021/06/08 06:34:17;;;;;;;6.05;5.53;;;;;;;19.85;70.81;99414.72;1677578;85;21024;-75
2021/06/08 06:36:46;;;;;;;5.53;5.03;;;;;;;19.93;71.01;99406.55;1677028;85;21067;-75
2021/06/08 06:39:23;;;;;;;6.10;5.05;;;;;;;20.00;69.89;99416.98;1677574;85;21039;-73
2021/06/08 06:41:51;;;;;;;4.58;4.28;;;;;;;20.06;69.52;99412.17;1673337;85;20960;-73
2021/06/08 06:44:19;;;;;;;5.80;4.33;;;;;;;20.12;69.28;99409.54;1655633;85;21033;-76
2021/06/08 06:46:50;;;;;;;7.28;6.58;;;;;;;20.17;68.59;99417.02;1677288;85;21051;-74
2021/06/08 06:49:22;;;;;;;4.72;4.33;;;;;;;20.16;67.69;99416.77;1655768;85;21099;-74
2021/06/08 06:51:48;;;;;;;5.15;4.67;;;;;;;20.17;68.16;99414.84;1655691;85;21029;-73
2021/06/08 06:54:15;;;;;;;7.10;5.00;;;;;;;20.18;68.62;99429.56;1677108;85;21069;-72
2021/06/08 06:56:41;;;;;;;6.65;5.12;;;;;;;20.21;68.91;99418.54;1624292;86;21035;-75
2021/06/08 06:59:07;;;;;;;4.97;4.25;;;;;;;20.26;68.65;99410.20;1650309;84;21039;-75
2021/06/08 07:01:34;;;;;;;5.83;5.37;;;;;;;20.40;69.04;99415.77;1695195;84;21543;-73
2021/06/08 07:04:01;;;;;;;5.33;4.85;;;;;;;20.40;69.04;99415.77;1695062;84;20986;-74
2021/06/08 07:06:28;;;;;;;5.83;5.33;;;;;;;20.45;68.29;99410.16;1694970;84;21063;-73
2021/06/08 07:08:56;;;;;;;5.87;5.08;;;;;;;20.51;67.73;99409.99;1694964;84;21508;-73
2021/06/08 07:11:23;;;;;;;5.53;5.10;;;;;;;20.53;67.76;99406.39;1666494;84;21656;-75
2021/06/08 07:13:50;;;;;;;6.17;5.50;;;;;;;20.60;67.88;99407.49;1628891;87;21064;-75
2021/06/08 07:16:17;;;;;;;5.72;5.22;;;;;;;20.67;68.36;99418.73;1649842;86;20975;-73
2021/06/08 07:18:46;;;;;;;5.50;5.10;;;;;;;20.73;68.49;99419.38;1647538;87;21047;-72
2021/06/08 07:21:14;;;;;;;7.92;5.37;;;;;;;20.75;68.04;99422.59;1617393;87;20971;-72
2021/06/08 07:23:40;;;;;;;5.20;4.80;;;;;;;20.75;67.17;99422.03;1665142;85;21021;-73
2021/06/08 07:26:07;;;;;;;6.10;5.50;;;;;;;20.74;66.67;99410.86;1667067;85;21650;-72
2021/06/08 07:28:34;;;;;;;12.10;8.28;;;;;;;20.77;67.20;99415.66;1639767;87;20959;-73
2021/06/08 07:31:00;;;;;;;7.37;6.10;;;;;;;20.79;67.01;99409.33;1681302;84;21536;-73
2021/06/08 07:33:48;;;;;;;7.60;5.37;;;;;;;20.80;66.60;99408.20;1671246;84;21107;-74
2021/06/08 07:36:26;;;;;;;5.72;5.12;;;;;;;20.84;65.74;99411.08;1656231;85;21071;-72
2021/06/08 07:39:02;;;;;;;4.37;3.98;;;;;;;20.89;65.44;99406.25;1668243;85;21112;-72
2021/06/08 07:41:46;;;;;;;6.65;4.97;;;;;;;20.98;64.77;99406.23;1643724;86;20933;-74
2021/06/08 07:44:15;;;;;;;;;;;;;;;21.08;64.25;99403.70;1681148;85;20951;-71
2021/06/08 07:46:41;;;;;;;6.75;4.95;;;;;;;21.20;64.06;99406.59;1645976;85;20327;-74
2021/06/08 07:49:08;;;;;;;11.43;4.30;;;;;;;21.27;64.13;99400.06;1689361;84;21015;-73
2021/06/08 07:51:34;;;;;;;5.70;5.20;;;;;;;21.35;63.98;99410.72;1677712;85;21017;-73
2021/06/08 07:54:01;;;;;;;7.25;5.00;;;;;;;21.39;63.80;99408.36;1655764;85;21012;-73
2021/06/08 07:56:29;;;;;;;6.87;6.28;;;;;;;21.44;64.69;99407.41;1654516;85;21094;-74
2021/06/08 07:58:55;;;;;;;6.20;5.03;;;;;;;21.46;65.52;99410.05;1639475;85;21059;-73
2021/06/08 08:01:21;;;;;;;9.90;7.75;;;;;;;21.48;64.75;99402.32;1653563;86;21352;-73
2021/06/08 08:03:49;;;;;;;6.30;4.97;;;;;;;21.51;64.92;99407.13;1664189;85;21504;-74
2021/06/08 08:06:16;;;;;;;5.28;4.78;;;;;;;21.52;64.76;99416.95;1677375;85;20957;-72
2021/06/08 08:08:43;;;;;;;7.58;6.87;;;;;;;21.56;64.70;99409.68;1677421;85;20933;-73
2021/06/08 08:11:15;;;;;;;4.42;3.47;;;;;;;21.60;64.26;99412.55;1677791;85;21016;-73
2021/06/08 08:13:45;;;;;;;4.05;3.65;;;;;;;21.64;63.65;99412.92;1677947;85;21019;-73
2021/06/08 08:16:13;;;;;;;4.17;3.87;;;;;;;21.66;63.32;99407.94;1676316;85;21144;-75
2021/06/08 08:18:41;;;;;;;3.20;3.00;;;;;;;21.69;62.71;99401.80;1645828;85;21068;-73
2021/06/08 08:21:09;;;;;;;3.62;3.33;;;;;;;21.74;60.13;99406.28;1642935;86;21086;-73
2021/06/08 08:23:36;;;;;;;4.35;2.45;;;;;;;21.76;59.53;99414.98;1687109;85;21028;-73
2021/06/08 08:26:06;;;;;;;3.10;2.80;;;;;;;21.78;59.06;99401.74;1687286;85;21032;-72
2021/06/08 08:28:35;;;;;;;3.17;2.90;;;;;;;21.85;59.13;99404.78;1686944;85;21795;-73
2021/06/08 08:31:08;;;;;;;3.22;2.75;;;;;;;21.94;58.87;99400.64;1686530;85;21008;-73
2021/06/08 08:33:34;;;;;;;3.00;2.50;;;;;;;22.02;57.16;99405.25;1665415;85;20971;-75
2021/06/08 08:36:01;;;;;;;2.92;2.72;;;;;;;22.14;57.36;99397.93;1687020;85;21800;-73
2021/06/08 08:38:31;;;;;;;3.85;2.62;;;;;;;22.26;58.04;99399.12;1665296;86;21182;-73
2021/06/08 08:41:16;;;;;;;4.92;3.12;;;;;;;22.37;58.16;99399.77;1675950;85;21145;-73
2021/06/08 08:44:00;;;;;;;5.03;2.65;;;;;;;22.51;58.12;99401.66;1665310;86;20943;-75
2021/06/08 08:46:27;;;;;;;3.85;3.45;;;;;;;22.61;57.80;99400.44;1687088;85;21111;-73
2021/06/08 08:48:54;;;;;;;3.25;2.95;;;;;;;22.65;56.47;99393.14;1687131;85;21481;-71
2021/06/08 08:51:24;;;;;;;2.80;2.60;;;;;;;22.70;56.54;99386.11;1665606;85;20993;-74
2021/06/08 08:53:55;;;;;;;3.10;2.80;;;;;;;22.78;57.16;99399.52;1610268;87;27005;-73
2021/06/08 08:56:36;;;;;;;3.10;2.60;;;;;;;22.80;55.17;99387.06;1649855;85;20986;-73
2021/06/08 08:59:09;;;;;;;3.47;3.17;;;;;;;22.76;55.58;99390.25;1638502;87;21093;-72
2021/06/08 09:01:36;;;;;;;6.17;3.55;;;;;;;22.69;56.22;99401.48;1688695;84;21018;-73
2021/06/08 09:04:05;;;;;;;3.52;3.22;;;;;;;22.60;57.15;99404.31;1675952;85;21076;-72
2021/06/08 09:06:32;;;;;;;4.92;3.02;;;;;;;22.56;58.57;99396.53;1665266;86;21819;-72
2021/06/08 09:09:01;;;;;;;11.78;3.72;;;;;;;22.57;59.21;99400.32;1675515;85;21538;-73
2021/06/08 09:11:31;;;;;;;5.35;3.35;;;;;;;22.54;58.80;99399.60;1664866;86;21028;-73
2021/06/08 09:13:57;;;;;;;3.55;3.10;;;;;;;22.52;59.21;99394.23;1677430;85;21044;-74
2021/06/08 09:16:23;;;;;;;5.72;3.00;;;;;;;22.51;59.20;99390.69;1659996;85;21051;-71
2021/06/08 09:18:49;;;;;;;3.30;3.10;;;;;;;22.56;59.36;99380.89;1649443;86;21138;-72
2021/06/08 09:21:22;;;;;;;3.50;3.20;;;;;;;22.63;59.22;99384.47;1630584;86;21028;-72
2021/06/08 09:23:48;;;;;;;3.40;2.98;;;;;;;22.71;58.85;99392.40;1649686;86;21069;-72
2021/06/08 09:26:15;;;;;;;7.92;3.25;;;;;;;22.76;57.13;99385.34;1649713;87;21052;-73
2021/06/08 09:28:44;;;;;;;6.85;3.30;;;;;;;22.72;57.55;99382.47;1659244;85;21067;-71
2021/06/08 09:31:20;;;;;;;3.80;3.50;;;;;;;22.71;58.00;99375.38;1675619;85;22026;-71
2021/06/08 09:33:53;;;;;;;4.25;3.85;;;;;;;22.72;57.98;99386.59;1674952;85;20917;-74
2021/06/08 09:36:28;;;;;;;4.22;3.25;;;;;;;22.72;57.63;99376.19;1656082;85;20995;-73
2021/06/08 09:39:02;;;;;;;4.83;2.90;;;;;;;22.78;57.57;99366.62;1648702;85;21028;-73
2021/06/08 09:41:32;;;;;;;2.85;2.65;;;;;;;22.90;55.87;99363.89;1675208;85;21080;-73
2021/06/08 09:44:07;;;;;;;3.62;2.80;;;;;;;23.04;54.33;99356.15;1656640;85;21134;-74
2021/06/08 09:46:54;;;;;;;2.98;2.77;;;;;;;23.19;54.58;99351.94;1670687;85;20980;-73
2021/06/08 09:49:35;;;;;;;3.20;2.90;;;;;;;23.37;54.54;99364.30;1648134;87;21006;-72
2021/06/08 09:52:07;;;;;;;8.23;2.33;;;;;;;23.52;54.05;99360.91;1656147;85;21084;-72
2021/06/08 09:54:44;;;;;;;2.50;2.30;;;;;;;23.57;52.13;99356.55;1644325;86;21525;-73
2021/06/08 09:57:26;;;;;;;5.15;2.37;;;;;;;23.53;51.95;99359.77;1649791;87;21129;-72
2021/06/08 09:59:58;;;;;;;2.37;2.27;;;;;;;;;;1630831;85;21004;-76
2021/06/08 10:02:39;;;;;;;5.57;2.97;;;;;;;23.45;51.18;99351.09;1650037;87;21543;-73
2021/06/08 10:05:29;;;;;;;2.35;2.15;;;;;;;23.36;51.12;99347.59;1630056;86;21161;-76
2021/06/08 10:08:04;;;;;;;2.72;2.47;;;;;;;23.26;51.46;99341.98;1653871;85;21032;-73
2021/06/08 10:10:44;;;;;;;5.25;2.65;;;;;;;23.18;51.65;99341.53;1675648;85;21033;-75
2021/06/08 10:13:19;;;;;;;3.35;2.42;;;;;;;23.13;51.94;99347.81;1666069;85;20977;-70
2021/06/08 10:16:02;;;;;;;5.42;2.75;;;;;;;23.12;52.48;99338.00;1655775;85;21474;-69
2021/06/08 10:18:45;;;;;;;3.60;2.62;;;;;;;23.10;52.76;99334.78;1654451;86;20965;-69
2021/06/08 10:21:12;;;;;;;6.70;2.52;;;;;;;23.06;52.67;99326.45;1656180;86;21122;-70
2021/06/08 10:23:38;;;;;;;3.85;3.00;;;;;;;23.02;53.40;99329.64;1672826;85;21142;-75
2021/06/08 10:26:10;;;;;;;3.30;2.98;;;;;;;23.11;53.89;99325.42;1649287;86;21017;-74
2021/06/08 10:28:37;;;;;;;8.90;2.80;;;;;;;23.22;53.56;99330.09;1656223;86;21043;-71
2021/06/08 10:31:04;;;;;;;6.08;2.77;;;;;;;23.27;52.88;99316.72;1636743;86;20992;-76
2021/06/08 10:33:30;;;;;;;3.10;2.80;;;;;;;23.36;53.15;99316.83;1641243;85;22195;-72
2021/06/08 10:35:57;;;;;;;3.52;3.20;;;;;;;23.41;52.32;99304.82;1641714;86;21099;-73
2021/06/08 10:38:25;;;;;;;2.80;2.60;;;;;;;23.43;54.25;99313.52;1655760;86;21497;-72
2021/06/08 10:40:56;;;;;;;5.95;3.08;;;;;;;23.43;54.31;99314.90;1632772;87;21557;-71
2021/06/08 10:43:27;;;;;;;3.60;3.20;;;;;;;23.48;54.62;99311.95;1674690;85;20953;-72
2021/06/08 10:45:56;;;;;;;3.85;3.37;;;;;;;23.60;55.33;99308.37;1657208;85;21028;-72
2021/06/08 10:48:37;;;;;;;6.15;3.80;;;;;;;23.73;55.24;99308.61;1636555;86;21077;-73
2021/06/08 10:51:14;;;;;;;3.87;3.12;;;;;;;23.80;54.89;99304.11;1655992;86;21029;-74
2021/06/08 10:53:51;;;;;;;3.58;3.22;;;;;;;23.86;54.81;99295.06;1656008;85;20992;-71
2021/06/08 10:56:31;;;;;;;3.20;3.00;;;;;;;23.92;54.12;99302.49;1636703;86;20962;-71
2021/06/08 10:59:08;;;;;;;5.72;3.08;;;;;;;23.97;52.95;99320.11;1656369;85;21536;-73
2021/06/08 11:01:42;;;;;;;3.87;3.17;;;;;;;23.94;53.77;99324.34;1636704;86;21477;-72
2021/06/08 11:04:15;;;;;;;3.17;2.98;;;;;;;23.88;53.17;99330.64;1655898;85;21498;-73
2021/06/08 11:06:51;;;;;;;6.85;2.95;;;;;;;23.85;53.14;99329.16;1668242;85;21024;-71
2021/06/08 11:09:31;;;;;;;7.42;3.15;;;;;;;23.79;54.98;99318.98;1667663;85;21012;-82
2021/06/08 11:12:05;;;;;;;4.67;2.62;;;;;;;23.67;55.65;99318.22;1667652;85;20972;-85
2021/06/08 11:14:43;;;;;;;3.85;2.95;;;;;;;23.62;55.98;99319.83;1631644;87;21137;-78
2021/06/08 11:17:14;;;;;;;2.92;2.70;;;;;;;23.57;57.26;99311.82;1655764;85;21243;-76
2021/06/08 11:19:51;;;;;;;3.12;2.92;;;;;;;23.40;57.54;99305.39;1612085;87;21178;-76
2021/06/08 11:22:20;;;;;;;4.45;3.10;;;;;;;23.28;57.73;99309.52;1683934;85;21216;-77
2021/06/08 11:24:49;;;;;;;7.62;6.37;;;;;;;23.17;58.15;99311.11;1682310;85;21072;-79
2021/06/08 11:27:17;;;;;;;6.45;4.58;;;;;;;23.08;58.74;99307.69;1666439;85;21204;-73
2021/06/08 11:29:54;;;;;;;4.25;3.85;;;;;;;23.03;58.75;99306.53;1668259;84;21016;-73
2021/06/08 11:32:34;;;;;;;6.42;3.60;;;;;;;23.04;58.57;99302.66;1693450;84;21047;-84
2021/06/08 11:35:17;;;;;;;3.98;3.67;;;;;;;23.03;58.65;99310.65;1668895;84;21056;-83
2021/06/08 11:37:53;;;;;;;9.33;4.95;;;;;;;22.93;58.93;99302.86;1693221;84;21084;-82
2021/06/08 11:40:42;;;;;;;8.18;4.37;;;;;;;22.76;59.39;99295.66;1687395;84;21292;-79
2021/06/08 11:43:17;;;;;;;5.97;4.42;;;;;;;22.67;59.81;99303.71;1685742;84;21058;-81